Time;durP1;ratioP1;P1;durP2;ratioP2;P2;SDS_P1;SDS_P2;PMS_P1;PMS_P2;Temp;Humidity;BMP_temperature;BMP_pressure;BME280_temperature;BME280_humidity;BME280_pressure;Samples;Min_cycle;Max_cycle;Signal;HPM_P1;HPM_P2
2021/01/29 00:00:37;;;;;;;2.43;1.10;;;6.20;99.90;;;;;;2073351;28;20212;-69
2021/01/29 00:01:38;;;;;;;1.65;1.17;;;6.20;99.90;;;;;;2069697;28;20200;-68
2021/01/29 00:02:39;;;;;;;1.50;1.17;;;6.20;99.90;;;;;;2072456;28;20296;-69
2021/01/29 00:03:40;;;;;;;3.33;1.10;;;6.20;99.90;;;;;;2073047;28;20560;-69
2021/01/29 00:04:41;;;;;;;1.03;0.90;;;6.10;99.90;;;;;;2072822;28;20269;-68
2021/01/29 00:05:54;;;;;;;1.00;0.70;;;6.10;99.90;;;;;;2072053;28;20209;-69
2021/01/29 00:06:55;;;;;;;1.63;0.80;;;6.10;99.90;;;;;;2072449;28;20424;-68
2021/01/29 00:07:56;;;;;;;1.90;0.80;;;6.00;99.90;;;;;;2072468;28;20300;-68
2021/01/29 00:08:56;;;;;;;1.60;0.90;;;6.00;99.90;;;;;;2073056;28;20210;-69
2021/01/29 00:09:57;;;;;;;1.10;1.00;;;6.00;99.90;;;;;;2072958;28;20181;-69
2021/01/29 00:10:58;;;;;;;1.73;0.93;;;6.00;99.90;;;;;;2072381;28;20189;-68
2021/01/29 00:11:58;;;;;;;1.17;1.00;;;5.90;99.90;;;;;;2073140;28;20260;-68
2021/01/29 00:13:01;;;;;;;1.57;1.10;;;5.90;99.90;;;;;;2072334;28;20178;-68
2021/01/29 00:14:02;;;;;;;0.70;0.70;;;5.90;99.90;;;;;;2064417;28;20175;-68
2021/01/29 00:15:06;;;;;;;0.77;0.77;;;5.90;99.90;;;;;;2072286;28;20557;-69
2021/01/29 00:16:07;;;;;;;1.02;0.68;;;5.90;99.90;;;;;;2070691;28;20182;-69
2021/01/29 00:17:08;;;;;;;0.97;0.83;;;5.90;99.90;;;;;;2064236;28;20700;-68
2021/01/29 00:18:10;;;;;;;1.50;0.87;;;5.90;99.90;;;;;;2064279;28;20206;-69
2021/01/29 00:19:11;;;;;;;1.02;1.00;;;5.90;99.90;;;;;;2056290;28;20254;-68
2021/01/29 00:20:17;;;;;;;0.90;0.80;;;5.90;99.90;;;;;;2064210;28;20190;-69
2021/01/29 00:21:18;;;;;;;1.17;0.80;;;5.90;99.90;;;;;;2063605;28;20268;-69
2021/01/29 00:22:19;;;;;;;0.90;0.80;;;5.90;99.90;;;;;;2064365;28;20217;-69
2021/01/29 00:23:20;;;;;;;1.10;1.00;;;5.90;99.90;;;;;;2064856;28;20284;-69
2021/01/29 00:24:21;;;;;;;1.00;0.90;;;5.90;99.90;;;;;;2064380;28;20194;-68
2021/01/29 00:25:27;;;;;;;1.17;0.90;;;5.80;99.90;;;;;;2064174;28;20205;-68
2021/01/29 00:26:28;;;;;;;0.80;0.80;;;5.80;99.90;;;;;;2064109;28;20190;-69
2021/01/29 00:27:29;;;;;;;1.10;1.00;;;5.80;99.90;;;;;;2064228;28;20198;-68
2021/01/29 00:28:30;;;;;;;1.40;1.30;;;5.80;99.90;;;;;;2064009;28;20189;-68
2021/01/29 00:29:32;;;;;;;1.67;1.57;;;5.80;99.90;;;;;;2064128;28;20189;-68
2021/01/29 00:30:34;;;;;;;2.65;1.90;;;5.80;99.90;;;;;;2064722;28;20210;-69
2021/01/29 00:31:35;;;;;;;3.30;2.10;;;5.80;99.90;;;;;;2063475;28;20577;-68
2021/01/29 00:32:36;;;;;;;3.97;3.65;;;5.80;99.90;;;;;;2064174;28;20182;-68
2021/01/29 00:33:37;;;;;;;3.00;2.80;;;5.80;99.90;;;;;;2064801;28;20196;-69
2021/01/29 00:34:37;;;;;;;3.50;3.20;;;5.80;99.90;;;;;;2064705;28;20183;-69
2021/01/29 00:35:38;;;;;;;4.07;3.17;;;5.80;99.90;;;;;;2064847;28;20233;-68
2021/01/29 00:36:40;;;;;;;2.38;2.17;;;5.80;99.90;;;;;;2064067;28;20187;-68
2021/01/29 00:37:41;;;;;;;2.53;2.33;;;5.80;99.90;;;;;;2063982;28;20185;-68
2021/01/29 00:38:42;;;;;;;2.90;2.70;;;5.70;99.90;;;;;;2064682;28;20183;-69
2021/01/29 00:39:42;;;;;;;2.93;2.63;;;5.70;99.90;;;;;;2064880;28;20214;-68
2021/01/29 00:40:43;;;;;;;1.90;1.80;;;5.70;99.90;;;;;;2064655;28;20178;-69
2021/01/29 00:41:44;;;;;;;2.27;2.07;;;5.70;99.90;;;;;;2064425;28;20181;-69
2021/01/29 00:42:47;;;;;;;2.07;1.90;;;5.70;99.90;;;;;;2064782;28;20205;-69
2021/01/29 00:43:47;;;;;;;3.25;2.65;;;5.60;99.90;;;;;;2064125;28;20177;-69
2021/01/29 00:44:48;;;;;;;24.07;5.53;;;5.60;99.90;;;;;;2063926;28;20182;-69
2021/01/29 00:45:49;;;;;;;8.90;2.10;;;5.60;99.90;;;;;;2064820;28;20253;-69
2021/01/29 00:46:49;;;;;;;3.00;2.40;;;5.60;99.90;;;;;;2064064;28;20657;-68
2021/01/29 00:47:50;;;;;;;3.33;2.27;;;5.50;99.90;;;;;;2063868;28;20228;-68
2021/01/29 00:48:51;;;;;;;2.63;1.63;;;5.50;99.90;;;;;;2063972;28;20158;-68
2021/01/29 00:49:52;;;;;;;3.20;1.90;;;5.50;99.90;;;;;;2064246;28;20561;-69
2021/01/29 00:50:53;;;;;;;5.47;3.10;;;5.50;99.90;;;;;;2063978;28;20233;-68
2021/01/29 00:51:53;;;;;;;3.07;1.87;;;5.50;99.90;;;;;;2064726;28;20544;-69
2021/01/29 00:52:54;;;;;;;2.77;2.23;;;5.50;99.90;;;;;;2064101;28;20170;-69
2021/01/29 00:53:55;;;;;;;2.20;1.90;;;5.50;99.90;;;;;;2055921;28;20186;-69
2021/01/29 00:54:55;;;;;;;2.00;1.73;;;5.50;99.90;;;;;;2064193;28;20182;-69
2021/01/29 00:55:56;;;;;;;2.53;2.30;;;5.50;99.90;;;;;;2063949;28;20173;-69
2021/01/29 00:56:57;;;;;;;2.97;2.40;;;5.60;99.90;;;;;;2064066;28;20254;-70
2021/01/29 00:57:58;;;;;;;1.80;1.70;;;5.50;99.90;;;;;;2064591;28;20609;-69
2021/01/29 00:58:58;;;;;;;1.73;1.50;;;5.50;99.90;;;;;;2064596;28;20166;-69
2021/01/29 00:59:59;;;;;;;1.40;1.30;;;5.60;99.90;;;;;;2064929;28;20609;-68
2021/01/29 01:01:00;;;;;;;1.47;1.37;;;5.60;99.90;;;;;;2064082;28;20312;-69
2021/01/29 01:02:01;;;;;;;1.42;1.10;;;5.70;99.90;;;;;;2064740;28;20182;-69
2021/01/29 01:03:02;;;;;;;1.57;1.37;;;5.70;99.90;;;;;;2064605;28;20273;-69
2021/01/29 01:04:03;;;;;;;1.53;1.43;;;5.70;99.90;;;;;;2063959;28;20185;-68
2021/01/29 01:05:05;;;;;;;1.97;1.50;;;5.70;99.90;;;;;;2064073;28;20198;-69
2021/01/29 01:06:05;;;;;;;0.60;0.60;;;5.70;99.90;;;;;;2064116;28;20182;-69
2021/01/29 01:07:08;;;;;;;0.73;0.73;;;5.80;99.90;;;;;;2064366;28;20722;-69
2021/01/29 01:08:09;;;;;;;0.93;0.75;;;5.90;99.90;;;;;;2064010;28;20205;-67
2021/01/29 01:09:10;;;;;;;1.83;0.80;;;5.90;99.90;;;;;;2064053;28;20205;-69
2021/01/29 01:10:14;;;;;;;0.60;0.50;;;6.00;99.90;;;;;;2064588;28;20182;-68
2021/01/29 01:11:14;;;;;;;0.60;0.60;;;6.10;99.90;;;;;;2063490;28;20623;-69
2021/01/29 01:12:15;;;;;;;0.97;0.70;;;6.20;99.90;;;;;;2055952;28;20195;-69
2021/01/29 01:13:16;;;;;;;0.50;0.50;;;6.20;99.90;;;;;;2063845;28;20268;-68
2021/01/29 01:14:17;;;;;;;0.60;0.53;;;6.20;99.90;;;;;;2064619;28;20620;-69
2021/01/29 01:15:24;;;;;;;0.40;0.40;;;6.30;99.90;;;;;;2063872;28;20186;-70
2021/01/29 01:16:24;;;;;;;0.60;0.60;;;6.40;99.90;;;;;;2056797;28;20183;-69
2021/01/29 01:17:25;;;;;;;0.50;0.50;;;6.50;99.90;;;;;;2057000;28;20213;-68
2021/01/29 01:18:26;;;;;;;0.85;0.52;;;6.60;99.90;;;;;;2065482;28;20686;-69
2021/01/29 01:19:27;;;;;;;0.50;0.50;;;6.60;99.90;;;;;;2065637;28;20197;-70
2021/01/29 01:20:29;;;;;;;0.70;0.40;;;6.60;99.90;;;;;;2065574;28;20244;-69
2021/01/29 01:21:30;;;;;;;0.82;0.45;;;6.60;99.90;;;;;;2064849;28;20201;-69
2021/01/29 01:22:31;;;;;;;1.10;0.60;;;6.60;99.90;;;;;;2065803;28;20195;-69
2021/01/29 01:23:31;;;;;;;0.40;0.40;;;6.60;99.90;;;;;;2066357;28;20182;-68
2021/01/29 01:24:39;;;;;;;0.50;0.50;;;6.60;99.90;;;;;;2066452;28;20224;-68
2021/01/29 01:25:40;;;;;;;0.65;0.40;;;6.60;99.90;;;;;;2065709;28;20241;-69
2021/01/29 01:26:40;;;;;;;1.07;0.47;;;6.60;99.90;;;;;;2065855;28;20241;-69
2021/01/29 01:27:42;;;;;;;0.97;0.40;;;6.60;99.90;;;;;;2066429;28;20178;-70
2021/01/29 01:28:42;;;;;;;0.40;0.40;;;6.70;99.90;;;;;;2066381;28;20239;-69
2021/01/29 01:29:44;;;;;;;0.43;0.40;;;6.60;99.90;;;;;;2065719;28;20182;-69
2021/01/29 01:30:44;;;;;;;0.20;0.20;;;6.60;99.90;;;;;;2057704;28;20183;-69
2021/01/29 01:31:45;;;;;;;0.60;0.30;;;6.60;99.90;;;;;;2057225;28;20532;-69
2021/01/29 01:32:46;;;;;;;0.40;0.40;;;6.60;99.90;;;;;;2065710;28;20210;-69
2021/01/29 01:33:47;;;;;;;0.68;0.30;;;6.60;99.90;;;;;;2065528;28;20264;-69
2021/01/29 01:34:48;;;;;;;0.40;0.37;;;6.70;99.90;;;;;;2065789;28;20170;-69
2021/01/29 01:35:48;;;;;;;0.40;0.33;;;6.70;99.90;;;;;;2066332;28;20178;-69
2021/01/29 01:36:49;;;;;;;0.97;0.40;;;6.70;99.90;;;;;;2066222;28;20950;-70
2021/01/29 01:37:51;;;;;;;0.40;0.40;;;6.70;99.90;;;;;;2066222;28;20213;-69
2021/01/29 01:38:51;;;;;;;0.38;0.35;;;6.60;99.90;;;;;;2066109;28;20174;-69
2021/01/29 01:39:52;;;;;;;0.50;0.47;;;6.50;99.90;;;;;;2066200;28;20186;-69
2021/01/29 01:40:53;;;;;;;0.50;0.40;;;6.60;99.90;;;;;;2065538;28;20195;-69
2021/01/29 01:41:55;;;;;;;0.50;0.40;;;6.60;99.90;;;;;;2066078;28;20258;-69
2021/01/29 01:42:56;;;;;;;0.45;0.40;;;6.50;99.90;;;;;;2065555;28;20178;-70
2021/01/29 01:44:01;;;;;;;0.40;0.40;;;6.50;99.90;;;;;;2065510;28;20186;-70
2021/01/29 01:45:40;;;;;;;0.52;0.40;;;6.50;99.90;;;;;;2065379;28;20198;-70
2021/01/29 01:46:40;;;;;;;0.40;0.40;;;6.60;99.90;;;;;;2038309;29;20203;-69
2021/01/29 01:47:41;;;;;;;0.87;0.50;;;6.50;99.90;;;;;;2059121;28;20861;-70
2021/01/29 01:49:00;;;;;;;0.63;0.50;;;6.60;99.90;;;;;;2066005;28;20179;-70
2021/01/29 01:50:14;;;;;;;0.32;0.32;;;6.60;99.90;;;;;;2066973;28;20646;-69
2021/01/29 01:51:36;;;;;;;0.40;0.40;;;6.60;99.90;;;;;;2065893;28;20174;-69
2021/01/29 01:52:37;;;;;;;1.48;0.52;;;6.60;99.90;;;;;;2060921;28;20556;-70
2021/01/29 01:53:47;;;;;;;0.50;0.50;;;6.50;99.90;;;;;;2058133;28;20232;-69
2021/01/29 01:54:51;;;;;;;1.13;0.52;;;6.50;99.90;;;;;;2059267;28;20163;-69
2021/01/29 01:56:04;;;;;;;0.85;0.50;;;6.50;99.90;;;;;;2057870;28;20179;-69
2021/01/29 01:57:06;;;;;;;0.90;0.50;;;6.50;99.90;;;;;;2059087;28;20183;-69
2021/01/29 01:58:08;;;;;;;1.45;0.80;;;6.50;99.90;;;;;;2057433;28;20610;-70
2021/01/29 01:59:16;;;;;;;1.88;0.63;;;6.50;99.90;;;;;;2065514;28;20186;-69
2021/01/29 02:00:23;;;;;;;0.50;0.40;;;6.50;99.90;;;;;;2057340;28;20593;-69
2021/01/29 02:01:24;;;;;;;1.33;0.40;;;6.50;99.90;;;;;;2050497;28;20172;-69
2021/01/29 02:02:29;;;;;;;0.40;0.40;;;6.40;99.90;;;;;;2057408;28;20253;-69
2021/01/29 02:03:33;;;;;;;0.85;0.50;;;6.40;99.90;;;;;;2057200;28;20431;-69
2021/01/29 02:04:39;;;;;;;0.77;0.40;;;6.40;99.90;;;;;;2057808;28;20190;-69
2021/01/29 02:05:41;;;;;;;0.63;0.50;;;6.40;99.90;;;;;;2065400;28;20182;-69
2021/01/29 02:07:18;;;;;;;2.13;0.60;;;6.40;99.90;;;;;;2057299;28;20189;-69
2021/01/29 02:08:19;;;;;;;0.50;0.50;;;6.40;99.90;;;;;;2062036;28;20710;-69
2021/01/29 02:09:23;;;;;;;0.40;0.40;;;6.30;99.90;;;;;;2065288;28;20187;-69
2021/01/29 02:10:26;;;;;;;0.50;0.50;;;6.40;99.90;;;;;;2065373;28;20238;-69
2021/01/29 02:11:28;;;;;;;0.68;0.40;;;6.40;99.90;;;;;;2056998;28;20191;-69
2021/01/29 02:12:28;;;;;;;0.63;0.40;;;6.30;99.90;;;;;;2049162;28;20187;-69
2021/01/29 02:13:29;;;;;;;0.40;0.40;;;6.20;99.90;;;;;;2051696;28;20187;-69
2021/01/29 02:14:30;;;;;;;0.73;0.40;;;6.20;99.90;;;;;;2057224;28;20232;-69
2021/01/29 02:15:44;;;;;;;0.70;0.60;;;6.20;99.90;;;;;;2057209;28;20198;-69
2021/01/29 02:17:00;;;;;;;1.10;0.50;;;6.20;99.90;;;;;;2058991;28;20261;-69
2021/01/29 02:18:26;;;;;;;1.77;0.65;;;6.20;99.90;;;;;;2065378;28;20201;-69
2021/01/29 02:19:47;;;;;;;0.85;0.40;;;6.20;99.90;;;;;;2065134;28;20229;-68
2021/01/29 02:21:28;;;;;;;0.32;0.32;;;6.30;99.90;;;;;;2065312;28;20236;-68
2021/01/29 02:22:34;;;;;;;0.40;0.40;;;6.30;99.90;;;;;;2065988;28;20540;-69
2021/01/29 02:24:15;;;;;;;0.50;0.50;;;6.30;99.90;;;;;;2065643;28;20189;-69
2021/01/29 02:26:06;;;;;;;0.50;0.50;;;6.30;99.90;;;;;;2048454;29;20246;-69
2021/01/29 02:27:57;;;;;;;2.67;0.40;;;6.30;99.90;;;;;;2049944;28;20235;-68
2021/01/29 02:29:43;;;;;;;0.32;0.30;;;6.30;99.90;;;;;;2064596;28;20589;-70
2021/01/29 02:31:19;;;;;;;0.93;0.30;;;6.30;99.90;;;;;;2062920;28;20174;-69
2021/01/29 02:33:11;;;;;;;0.20;0.20;;;6.40;99.90;;;;;;2041520;28;20203;-69
2021/01/29 02:34:48;;;;;;;0.38;0.38;;;6.40;99.90;;;;;;2065773;28;20186;-69
2021/01/29 02:36:45;;;;;;;0.73;0.40;;;6.40;99.90;;;;;;2065649;28;20269;-69
2021/01/29 02:38:07;;;;;;;0.45;0.45;;;6.40;99.90;;;;;;2065539;28;20555;-69
2021/01/29 02:39:52;;;;;;;0.40;0.40;;;6.40;99.90;;;;;;2065781;28;20188;-69
2021/01/29 02:41:08;;;;;;;0.17;0.17;;;6.30;99.90;;;;;;2064723;28;20178;-69
2021/01/29 02:43:03;;;;;;;0.30;0.30;;;6.30;99.90;;;;;;2065146;28;20177;-69
2021/01/29 02:44:47;;;;;;;0.40;0.40;;;6.30;99.90;;;;;;2040595;29;20206;-70
2021/01/29 02:46:05;;;;;;;0.50;0.30;;;6.30;99.90;;;;;;2047958;28;20602;-69
2021/01/29 02:47:14;;;;;;;0.40;0.35;;;6.30;99.90;;;;;;2065042;28;20549;-69
2021/01/29 02:48:55;;;;;;;0.30;0.30;;;6.30;99.90;;;;;;2057707;28;20229;-69
2021/01/29 02:50:25;;;;;;;1.02;0.30;;;6.30;99.90;;;;;;2058953;28;20252;-70
2021/01/29 02:51:59;;;;;;;2.92;0.43;;;6.20;99.90;;;;;;2060235;28;20175;-69
2021/01/29 02:53:40;;;;;;;0.20;0.20;;;6.20;99.90;;;;;;2065062;28;20206;-68
2021/01/29 02:54:50;;;;;;;0.30;0.25;;;6.30;99.90;;;;;;2062315;28;20198;-69
2021/01/29 02:56:20;;;;;;;0.20;0.20;;;6.30;99.90;;;;;;2058172;28;20175;-69
2021/01/29 02:57:29;;;;;;;0.20;0.20;;;6.30;99.90;;;;;;2060631;28;20178;-69
2021/01/29 02:58:43;;;;;;;0.55;0.30;;;6.30;99.90;;;;;;2058033;28;20759;-69
2021/01/29 03:00:11;;;;;;;0.30;0.30;;;6.30;99.90;;;;;;2058557;28;20176;-69
2021/01/29 03:01:29;;;;;;;1.35;0.22;;;6.40;99.90;;;;;;2060038;28;20198;-69
2021/01/29 03:02:42;;;;;;;0.30;0.30;;;6.40;99.90;;;;;;2059170;28;20653;-69
2021/01/29 03:04:00;;;;;;;0.20;0.20;;;6.40;99.90;;;;;;2065180;28;20238;-68
2021/01/29 03:05:08;;;;;;;0.20;0.20;;;6.40;99.90;;;;;;2064790;28;20306;-70
2021/01/29 03:06:23;;;;;;;0.30;0.25;;;6.40;99.90;;;;;;2057734;28;20215;-69
2021/01/29 03:07:34;;;;;;;0.30;0.20;;;6.30;99.90;;;;;;2050907;28;20175;-70
2021/01/29 03:08:43;;;;;;;0.20;0.13;;;6.30;99.90;;;;;;2051474;28;20255;-68
2021/01/29 03:10:03;;;;;;;0.20;0.20;;;6.40;99.90;;;;;;2058093;28;20195;-69
2021/01/29 03:11:15;;;;;;;0.20;0.20;;;6.40;99.90;;;;;;2064521;28;20170;-69
2021/01/29 03:12:31;;;;;;;2.20;0.10;;;6.40;99.90;;;;;;2065039;28;20570;-69
2021/01/29 03:14:12;;;;;;;0.20;0.20;;;6.40;99.90;;;;;;2058796;28;20174;-69
2021/01/29 03:15:21;;;;;;;0.20;0.20;;;6.40;99.90;;;;;;2049628;28;20560;-69
2021/01/29 03:16:33;;;;;;;1.23;0.20;;;6.40;99.90;;;;;;2057988;28;20168;-68
2021/01/29 03:17:58;;;;;;;0.50;0.43;;;6.40;99.90;;;;;;2058171;28;20179;-70
2021/01/29 03:19:12;;;;;;;0.52;0.35;;;6.40;99.90;;;;;;2059942;28;20171;-69
2021/01/29 03:20:32;;;;;;;0.20;0.20;;;6.30;99.90;;;;;;2064957;28;20916;-71
2021/01/29 03:21:41;;;;;;;0.20;0.20;;;6.40;99.90;;;;;;2063186;28;20174;-70
2021/01/29 03:22:48;;;;;;;0.20;0.20;;;6.30;99.90;;;;;;2066097;28;20204;-70
2021/01/29 03:24:09;;;;;;;0.20;0.20;;;6.30;99.90;;;;;;2065495;28;20186;-69
2021/01/29 03:25:35;;;;;;;0.28;0.20;;;6.30;99.90;;;;;;2067429;28;20276;-70
2021/01/29 03:26:44;;;;;;;0.43;0.20;;;6.30;99.90;;;;;;2068125;28;20208;-69
2021/01/29 03:27:53;;;;;;;0.10;0.10;;;6.40;99.90;;;;;;2065702;28;20217;-70
2021/01/29 03:29:00;;;;;;;0.15;0.15;;;6.30;99.90;;;;;;2066154;28;20188;-70
2021/01/29 03:30:08;;;;;;;0.10;0.10;;;6.30;99.90;;;;;;2065153;28;20182;-69
2021/01/29 03:31:13;;;;;;;0.20;0.20;;;6.30;99.90;;;;;;2065241;28;20269;-70
2021/01/29 03:32:15;;;;;;;0.20;0.20;;;6.30;99.90;;;;;;2065149;28;20210;-69
2021/01/29 03:33:18;;;;;;;0.28;0.28;;;6.30;99.90;;;;;;2065084;28;20182;-70
2021/01/29 03:34:48;;;;;;;0.20;0.20;;;6.30;99.90;;;;;;2065003;28;20213;-69
2021/01/29 03:36:00;;;;;;;0.40;0.40;;;6.30;99.90;;;;;;2066421;28;20657;-69
2021/01/29 03:37:17;;;;;;;0.70;0.50;;;6.30;99.90;;;;;;2072980;28;20236;-69
2021/01/29 03:38:25;;;;;;;1.17;0.40;;;6.30;99.90;;;;;;2072565;28;20205;-69
2021/01/29 03:39:38;;;;;;;0.60;0.30;;;6.30;99.90;;;;;;2072974;28;20541;-70
2021/01/29 03:40:45;;;;;;;0.75;0.40;;;6.20;99.90;;;;;;2072010;28;20257;-69
2021/01/29 03:41:59;;;;;;;0.75;0.32;;;6.10;99.90;;;;;;2065067;28;20824;-69
2021/01/29 03:43:26;;;;;;;1.13;0.60;;;6.10;99.90;;;;;;2066510;28;20182;-70
2021/01/29 03:45:17;;;;;;;0.52;0.30;;;6.10;99.90;;;;;;2072887;28;20188;-69
2021/01/29 03:46:40;;;;;;;0.30;0.30;;;6.10;99.90;;;;;;2064001;28;20260;-69
2021/01/29 03:48:16;;;;;;;0.43;0.40;;;6.00;99.90;;;;;;2080910;28;20173;-70
2021/01/29 03:49:41;;;;;;;0.30;0.30;;;5.90;99.90;;;;;;2072737;28;20185;-70
2021/01/29 03:51:05;;;;;;;2.38;0.35;;;5.90;99.90;;;;;;2087874;22;20517;-63
2021/01/29 03:52:49;;;;;;;0.40;0.40;;;5.90;99.90;;;;;;2080599;28;20165;-63
2021/01/29 03:54:16;;;;;;;0.13;0.13;;;5.90;99.90;;;;;;2061458;28;20633;-63
2021/01/29 03:55:36;;;;;;;0.30;0.30;;;5.90;99.90;;;;;;2080848;28;20184;-63
2021/01/29 03:56:51;;;;;;;0.30;0.30;;;5.90;99.90;;;;;;2080587;28;20190;-63
2021/01/29 03:58:03;;;;;;;0.43;0.30;;;5.90;99.90;;;;;;2080837;28;20255;-63
2021/01/29 03:59:32;;;;;;;0.28;0.28;;;5.90;99.90;;;;;;2081533;28;20322;-63
2021/01/29 04:00:54;;;;;;;0.10;0.10;;;5.90;99.90;;;;;;2083028;28;20223;-63
2021/01/29 04:02:30;;;;;;;0.30;0.30;;;5.90;99.90;;;;;;2083361;28;20168;-62
2021/01/29 04:04:01;;;;;;;0.20;0.20;;;5.80;99.90;;;;;;2085666;28;20165;-63
2021/01/29 04:05:20;;;;;;;1.10;0.20;;;5.80;99.90;;;;;;2089107;28;20160;-63
2021/01/29 04:06:27;;;;;;;0.20;0.20;;;5.80;99.90;;;;;;2088985;28;20226;-63
2021/01/29 04:07:43;;;;;;;0.25;0.25;;;5.90;99.90;;;;;;2079187;28;20599;-63
2021/01/29 04:09:08;;;;;;;0.38;0.20;;;5.80;99.90;;;;;;2071763;28;20174;-63
2021/01/29 04:10:14;;;;;;;1.33;0.30;;;5.80;99.90;;;;;;2072728;28;20166;-63
2021/01/29 04:11:22;;;;;;;0.20;0.20;;;5.80;99.90;;;;;;2071756;28;20674;-63
2021/01/29 04:13:04;;;;;;;0.20;0.20;;;5.70;99.90;;;;;;2065416;28;20210;-63
2021/01/29 04:14:11;;;;;;;0.10;0.10;;;5.70;99.90;;;;;;2064823;28;20297;-63
2021/01/29 04:15:23;;;;;;;0.20;0.20;;;5.70;99.90;;;;;;2072545;28;20272;-63
2021/01/29 04:16:45;;;;;;;0.82;0.20;;;5.70;99.90;;;;;;2065689;28;20216;-63
2021/01/29 04:18:12;;;;;;;0.30;0.30;;;5.80;99.90;;;;;;2072404;28;20256;-64
2021/01/29 04:19:18;;;;;;;2.58;1.40;;;5.80;99.90;;;;;;2067858;28;20189;-63
2021/01/29 04:20:50;;;;;;;1.83;1.10;;;5.80;99.90;;;;;;2072276;28;20170;-63
2021/01/29 04:22:00;;;;;;;2.08;1.27;;;5.80;99.90;;;;;;2072267;28;20170;-63
2021/01/29 04:23:07;;;;;;;3.22;0.80;;;5.90;99.90;;;;;;2065713;28;20178;-64
2021/01/29 04:24:19;;;;;;;1.88;0.70;;;5.80;99.90;;;;;;2064929;28;20261;-63
2021/01/29 04:25:29;;;;;;;0.60;0.55;;;5.80;99.90;;;;;;2065847;28;20284;-63
2021/01/29 04:26:37;;;;;;;1.73;0.70;;;5.80;99.90;;;;;;2065450;28;20189;-63
2021/01/29 04:27:41;;;;;;;0.85;0.55;;;5.70;99.90;;;;;;2065430;28;20171;-63
2021/01/29 04:28:46;;;;;;;0.32;0.32;;;5.70;99.90;;;;;;2072110;28;20188;-63
2021/01/29 04:30:19;;;;;;;0.43;0.43;;;5.70;99.90;;;;;;2072424;28;20170;-63
2021/01/29 04:31:23;;;;;;;0.77;0.50;;;5.80;99.90;;;;;;2068022;28;20186;-63
2021/01/29 04:32:32;;;;;;;0.60;0.40;;;5.80;99.90;;;;;;2064674;28;20725;-63
2021/01/29 04:33:46;;;;;;;0.50;0.38;;;5.80;99.90;;;;;;2065396;28;20166;-62
2021/01/29 04:34:53;;;;;;;0.20;0.20;;;5.80;99.90;;;;;;2066113;28;20188;-63
2021/01/29 04:35:58;;;;;;;0.20;0.20;;;5.90;99.90;;;;;;2072892;28;20180;-63
2021/01/29 04:37:04;;;;;;;0.20;0.20;;;5.90;99.90;;;;;;2072530;28;20184;-63
2021/01/29 04:38:11;;;;;;;0.30;0.30;;;6.00;99.90;;;;;;2072504;28;20169;-64
2021/01/29 04:39:23;;;;;;;1.30;0.30;;;6.00;99.90;;;;;;2065000;28;20615;-64
2021/01/29 04:40:35;;;;;;;1.38;0.30;;;6.10;99.90;;;;;;2065686;28;20225;-63
2021/01/29 04:42:26;;;;;;;0.10;0.10;;;6.10;99.90;;;;;;2073437;28;20227;-63
2021/01/29 04:44:03;;;;;;;1.45;0.13;;;6.10;99.90;;;;;;2074323;28;20261;-63
2021/01/29 04:45:40;;;;;;;0.22;0.22;;;6.20;99.90;;;;;;2072982;28;20166;-63
2021/01/29 04:47:38;;;;;;;0.40;0.40;;;6.20;99.90;;;;;;2072280;28;20178;-63
2021/01/29 04:48:52;;;;;;;0.68;0.50;;;6.30;99.90;;;;;;2067954;28;20203;-63
2021/01/29 04:50:09;;;;;;;0.45;0.45;;;6.30;99.90;;;;;;2072979;28;20176;-63
2021/01/29 04:51:52;;;;;;;0.50;0.50;;;6.40;99.90;;;;;;2071678;28;20247;-63
2021/01/29 04:53:00;;;;;;;0.30;0.30;;;6.40;99.90;;;;;;2072848;28;20171;-63
2021/01/29 04:54:44;;;;;;;0.28;0.28;;;6.60;99.90;;;;;;2072538;28;20166;-63
2021/01/29 04:56:03;;;;;;;0.45;0.40;;;6.70;99.90;;;;;;2072765;28;20187;-63
2021/01/29 04:57:25;;;;;;;0.30;0.30;;;6.70;99.90;;;;;;2072941;28;20264;-63
2021/01/29 04:58:33;;;;;;;0.30;0.28;;;6.70;99.90;;;;;;2072354;28;20261;-63
2021/01/29 04:59:45;;;;;;;0.50;0.30;;;6.80;99.90;;;;;;2065294;28;20681;-63
2021/01/29 05:01:23;;;;;;;0.38;0.30;;;6.80;99.90;;;;;;2072380;28;20236;-63
2021/01/29 05:03:21;;;;;;;0.20;0.20;;;6.90;99.90;;;;;;2072211;28;20178;-63
2021/01/29 05:05:09;;;;;;;0.10;0.10;;;7.00;99.90;;;;;;2067302;28;20260;-63
2021/01/29 05:06:19;;;;;;;0.20;0.20;;;7.10;99.90;;;;;;2070529;28;20280;-63
2021/01/29 05:07:49;;;;;;;0.20;0.20;;;7.10;99.90;;;;;;2072598;28;20180;-63
2021/01/29 05:09:20;;;;;;;0.30;0.30;;;7.20;99.90;;;;;;2072900;28;20655;-63
2021/01/29 05:11:15;;;;;;;0.30;0.30;;;7.10;99.90;;;;;;2072192;28;20194;-64
2021/01/29 05:12:44;;;;;;;0.10;0.10;;;7.30;99.90;;;;;;2049224;28;20294;-63
2021/01/29 05:14:19;;;;;;;0.82;0.50;;;7.30;99.90;;;;;;2072819;28;20194;-63
2021/01/29 05:16:09;;;;;;;0.38;0.38;;;7.30;99.90;;;;;;2072928;28;20219;-63
2021/01/29 05:17:36;;;;;;;0.35;0.25;;;7.30;99.90;;;;;;2066393;28;20189;-63
2021/01/29 05:19:14;;;;;;;0.28;0.28;;;7.40;99.90;;;;;;2072507;28;20204;-64
2021/01/29 05:21:28;;;;;;;0.30;0.30;;;7.40;99.90;;;;;;2072715;28;20177;-63
2021/01/29 05:22:46;;;;;;;0.30;0.30;;;7.40;99.90;;;;;;2055354;28;20617;-64
2021/01/29 05:24:38;;;;;;;0.20;0.20;;;7.30;99.90;;;;;;2055746;28;20186;-64
2021/01/29 05:26:03;;;;;;;0.30;0.30;;;7.30;99.90;;;;;;2072737;28;20196;-63
2021/01/29 05:27:34;;;;;;;0.65;0.65;;;7.40;99.90;;;;;;2072650;28;20181;-63
2021/01/29 05:29:06;;;;;;;1.63;0.50;;;7.40;99.90;;;;;;2072664;28;20169;-63
2021/01/29 05:30:46;;;;;;;0.10;0.10;;;7.30;99.90;;;;;;2072905;28;20174;-63
2021/01/29 05:32:42;;;;;;;0.20;0.20;;;7.30;99.90;;;;;;2072006;28;20204;-63
2021/01/29 05:34:33;;;;;;;0.10;0.10;;;7.30;99.90;;;;;;2072648;28;20611;-64
2021/01/29 05:36:11;;;;;;;0.20;0.20;;;7.30;99.90;;;;;;2064118;28;20217;-64
2021/01/29 05:37:44;;;;;;;0.30;0.30;;;7.40;99.90;;;;;;2068873;28;20711;-64
2021/01/29 05:39:10;;;;;;;0.20;0.20;;;7.40;99.90;;;;;;2071964;28;20572;-64
2021/01/29 05:40:36;;;;;;;0.20;0.20;;;7.50;99.90;;;;;;2072404;28;20252;-64
2021/01/29 05:41:43;;;;;;;0.10;0.10;;;7.50;99.90;;;;;;2071600;28;20648;-64
2021/01/29 05:43:29;;;;;;;0.10;0.10;;;7.50;99.90;;;;;;2072138;28;20178;-63
2021/01/29 05:45:20;;;;;;;0.20;0.20;;;7.40;99.90;;;;;;2047406;29;20671;-63
2021/01/29 05:46:39;;;;;;;0.10;0.10;;;7.40;99.90;;;;;;2062245;28;20285;-62
2021/01/29 05:47:52;;;;;;;0.10;0.10;;;7.40;99.90;;;;;;2072283;28;20170;-63
2021/01/29 05:49:15;;;;;;;0.75;0.15;;;7.40;99.90;;;;;;2072339;28;20245;-63
2021/01/29 05:50:51;;;;;;;0.20;0.20;;;7.50;99.90;;;;;;2072069;28;20585;-63
2021/01/29 05:52:33;;;;;;;0.30;0.30;;;7.50;99.90;;;;;;2072376;28;20558;-64
2021/01/29 05:54:10;;;;;;;0.30;0.30;;;7.40;99.90;;;;;;2072884;28;20249;-64
2021/01/29 05:55:26;;;;;;;1.35;1.23;;;7.40;99.90;;;;;;2072219;28;20166;-64
2021/01/29 05:57:11;;;;;;;0.40;0.40;;;7.30;99.90;;;;;;2066019;28;20241;-64
2021/01/29 05:58:38;;;;;;;0.20;0.20;;;7.20;99.90;;;;;;2055293;28;20198;-64
2021/01/29 06:00:17;;;;;;;0.52;0.30;;;7.10;99.90;;;;;;2072444;28;20605;-64
2021/01/29 06:01:39;;;;;;;0.20;0.20;;;7.20;99.90;;;;;;2071928;28;20540;-63
2021/01/29 06:03:13;;;;;;;0.20;0.20;;;7.20;99.90;;;;;;2072289;28;20216;-63
2021/01/29 06:04:47;;;;;;;0.20;0.20;;;7.30;99.90;;;;;;2072452;28;20205;-63
2021/01/29 06:06:41;;;;;;;2.40;0.20;;;7.30;99.90;;;;;;2073376;28;20589;-63
2021/01/29 06:08:23;;;;;;;0.20;0.20;;;7.30;99.90;;;;;;2074029;28;20274;-64
2021/01/29 06:09:54;;;;;;;0.40;0.20;;;7.30;99.90;;;;;;2056665;28;20190;-64
2021/01/29 06:11:23;;;;;;;0.30;0.30;;;7.30;99.90;;;;;;2055866;28;20203;-64
2021/01/29 06:12:46;;;;;;;0.93;0.47;;;7.30;99.90;;;;;;2048480;29;20247;-64
2021/01/29 06:14:29;;;;;;;0.50;0.43;;;7.30;99.90;;;;;;2056765;28;20190;-64
2021/01/29 06:16:11;;;;;;;3.25;0.55;;;7.20;99.90;;;;;;2075746;28;20197;-64
2021/01/29 06:17:57;;;;;;;0.52;0.30;;;7.10;99.90;;;;;;2073466;28;20256;-64
2021/01/29 06:19:29;;;;;;;4.50;0.57;;;7.00;99.90;;;;;;2050225;28;20266;-64
2021/01/29 06:20:45;;;;;;;0.68;0.20;;;7.00;99.90;;;;;;2077190;28;20652;-65
2021/01/29 06:22:16;;;;;;;1.02;0.22;;;6.80;99.90;;;;;;2079127;28;20726;-64
2021/01/29 06:23:52;;;;;;;0.43;0.43;;;6.40;99.90;;;;;;2073752;28;20242;-64
2021/01/29 06:25:20;;;;;;;0.20;0.20;;;6.10;99.90;;;;;;2062748;28;20200;-64
2021/01/29 06:26:57;;;;;;;0.20;0.20;;;6.00;99.90;;;;;;2073769;28;20647;-64
2021/01/29 06:28:21;;;;;;;0.32;0.20;;;6.00;99.90;;;;;;2073723;28;20165;-64
2021/01/29 06:29:48;;;;;;;0.20;0.20;;;5.90;99.90;;;;;;2073690;28;20207;-64
2021/01/29 06:31:27;;;;;;;1.02;0.20;;;5.90;99.90;;;;;;2073182;28;20204;-64
2021/01/29 06:33:10;;;;;;;0.50;0.20;;;6.10;99.90;;;;;;2073892;28;20170;-64
2021/01/29 06:35:10;;;;;;;0.70;0.35;;;6.10;99.90;;;;;;2073150;28;20637;-63
2021/01/29 06:36:39;;;;;;;1.35;0.30;;;6.20;99.90;;;;;;2073776;28;20208;-63
2021/01/29 06:37:50;;;;;;;0.90;0.50;;;6.40;99.90;;;;;;2073019;28;20594;-63
2021/01/29 06:39:11;;;;;;;1.27;0.90;;;6.30;99.90;;;;;;2073136;28;20166;-63
2021/01/29 06:40:41;;;;;;;0.40;0.40;;;6.30;99.90;;;;;;2073865;28;20197;-63
2021/01/29 06:41:51;;;;;;;0.60;0.50;;;6.40;99.90;;;;;;2072945;28;20201;-63
2021/01/29 06:43:41;;;;;;;0.43;0.43;;;6.40;99.90;;;;;;2073721;28;20269;-63